sensor_id;sensor_type;location;lat;lon;timestamp;P1;durP1;ratioP1;P2;durP2;ratioP2
36989;SDS011;22898;52.102;5.776;2023-10-31T00:00:15;1.67;;;0.60;;
36989;SDS011;22898;52.102;5.776;2023-10-31T00:02:41;0.73;;;0.57;;
36989;SDS011;22898;52.102;5.776;2023-10-31T00:05:06;0.43;;;0.43;;
36989;SDS011;22898;52.102;5.776;2023-10-31T00:07:32;2.92;;;0.50;;
36989;SDS011;22898;52.102;5.776;2023-10-31T00:09:57;0.60;;;0.60;;
36989;SDS011;22898;52.102;5.776;2023-10-31T00:12:23;0.85;;;0.60;;
36989;SDS011;22898;52.102;5.776;2023-10-31T00:14:48;0.88;;;0.63;;
36989;SDS011;22898;52.102;5.776;2023-10-31T00:17:14;1.23;;;0.93;;
36989;SDS011;22898;52.102;5.776;2023-10-31T00:19:40;1.30;;;1.10;;
36989;SDS011;22898;52.102;5.776;2023-10-31T00:22:05;1.25;;;1.00;;
36989;SDS011;22898;52.102;5.776;2023-10-31T00:24:31;0.80;;;0.80;;
36989;SDS011;22898;52.102;5.776;2023-10-31T00:26:57;1.08;;;0.75;;
36989;SDS011;22898;52.102;5.776;2023-10-31T00:29:23;1.13;;;0.98;;
36989;SDS011;22898;52.102;5.776;2023-10-31T00:31:48;1.40;;;1.00;;
36989;SDS011;22898;52.102;5.776;2023-10-31T00:34:14;3.10;;;0.95;;
36989;SDS011;22898;52.102;5.776;2023-10-31T00:36:40;2.08;;;1.15;;
36989;SDS011;22898;52.102;5.776;2023-10-31T00:39:06;1.10;;;1.00;;
36989;SDS011;22898;52.102;5.776;2023-10-31T00:41:31;2.78;;;1.10;;
36989;SDS011;22898;52.102;5.776;2023-10-31T00:43:57;2.17;;;0.88;;
36989;SDS011;22898;52.102;5.776;2023-10-31T00:46:22;0.85;;;0.85;;
36989;SDS011;22898;52.102;5.776;2023-10-31T00:48:48;3.17;;;0.90;;
36989;SDS011;22898;52.102;5.776;2023-10-31T00:51:14;2.03;;;0.73;;
36989;SDS011;22898;52.102;5.776;2023-10-31T00:53:39;0.98;;;0.85;;
36989;SDS011;22898;52.102;5.776;2023-10-31T00:56:05;1.30;;;0.77;;
36989;SDS011;22898;52.102;5.776;2023-10-31T00:58:31;0.82;;;0.80;;
36989;SDS011;22898;52.102;5.776;2023-10-31T01:00:57;0.68;;;0.63;;
36989;SDS011;22898;52.102;5.776;2023-10-31T01:03:23;1.23;;;0.70;;
36989;SDS011;22898;52.102;5.776;2023-10-31T01:05:48;0.57;;;0.50;;
36989;SDS011;22898;52.102;5.776;2023-10-31T01:08:14;3.25;;;0.93;;
36989;SDS011;22898;52.102;5.776;2023-10-31T01:10:40;1.60;;;0.95;;
36989;SDS011;22898;52.102;5.776;2023-10-31T01:13:05;3.60;;;0.77;;
36989;SDS011;22898;52.102;5.776;2023-10-31T01:15:31;3.50;;;1.25;;
36989;SDS011;22898;52.102;5.776;2023-10-31T01:17:57;3.22;;;1.50;;
36989;SDS011;22898;52.102;5.776;2023-10-31T01:20:23;2.83;;;1.58;;
36989;SDS011;22898;52.102;5.776;2023-10-31T01:22:48;7.70;;;1.95;;
36989;SDS011;22898;52.102;5.776;2023-10-31T01:25:14;5.45;;;3.00;;
36989;SDS011;22898;52.102;5.776;2023-10-31T01:27:39;7.78;;;3.42;;
36989;SDS011;22898;52.102;5.776;2023-10-31T01:30:07;6.05;;;3.60;;
36989;SDS011;22898;52.102;5.776;2023-10-31T01:32:33;6.70;;;3.40;;
36989;SDS011;22898;52.102;5.776;2023-10-31T01:34:58;6.50;;;3.08;;
36989;SDS011;22898;52.102;5.776;2023-10-31T01:37:24;8.45;;;3.63;;
36989;SDS011;22898;52.102;5.776;2023-10-31T01:39:50;8.23;;;3.88;;
36989;SDS011;22898;52.102;5.776;2023-10-31T01:42:16;8.77;;;3.70;;
36989;SDS011;22898;52.102;5.776;2023-10-31T01:44:42;7.07;;;3.60;;
36989;SDS011;22898;52.102;5.776;2023-10-31T01:47:07;6.53;;;3.25;;
36989;SDS011;22898;52.102;5.776;2023-10-31T01:49:33;5.85;;;3.25;;
36989;SDS011;22898;52.102;5.776;2023-10-31T01:52:00;9.02;;;3.22;;
36989;SDS011;22898;52.102;5.776;2023-10-31T01:54:27;5.88;;;4.03;;
36989;SDS011;22898;52.102;5.776;2023-10-31T01:56:56;8.30;;;4.28;;
36989;SDS011;22898;52.102;5.776;2023-10-31T01:59:26;7.40;;;3.83;;
36989;SDS011;22898;52.102;5.776;2023-10-31T02:01:52;8.10;;;4.03;;
36989;SDS011;22898;52.102;5.776;2023-10-31T02:04:18;7.60;;;3.55;;
36989;SDS011;22898;52.102;5.776;2023-10-31T02:06:44;5.75;;;3.28;;
36989;SDS011;22898;52.102;5.776;2023-10-31T02:09:09;7.63;;;4.47;;
36989;SDS011;22898;52.102;5.776;2023-10-31T02:11:35;6.72;;;3.72;;
36989;SDS011;22898;52.102;5.776;2023-10-31T02:14:01;7.63;;;3.63;;
36989;SDS011;22898;52.102;5.776;2023-10-31T02:16:26;6.35;;;3.33;;
36989;SDS011;22898;52.102;5.776;2023-10-31T02:18:52;5.63;;;3.10;;
36989;SDS011;22898;52.102;5.776;2023-10-31T02:21:21;5.35;;;2.97;;
36989;SDS011;22898;52.102;5.776;2023-10-31T02:23:59;6.40;;;3.05;;
36989;SDS011;22898;52.102;5.776;2023-10-31T02:26:30;6.32;;;2.90;;
36989;SDS011;22898;52.102;5.776;2023-10-31T02:28:56;8.48;;;3.60;;
36989;SDS011;22898;52.102;5.776;2023-10-31T02:31:22;6.40;;;3.03;;
36989;SDS011;22898;52.102;5.776;2023-10-31T02:33:48;5.82;;;3.35;;
36989;SDS011;22898;52.102;5.776;2023-10-31T02:36:13;6.78;;;3.80;;
36989;SDS011;22898;52.102;5.776;2023-10-31T02:38:39;6.53;;;3.58;;
36989;SDS011;22898;52.102;5.776;2023-10-31T02:41:05;6.20;;;3.10;;
36989;SDS011;22898;52.102;5.776;2023-10-31T02:43:30;6.93;;;3.40;;
36989;SDS011;22898;52.102;5.776;2023-10-31T02:45:56;9.82;;;4.78;;
36989;SDS011;22898;52.102;5.776;2023-10-31T02:48:22;7.30;;;3.50;;
36989;SDS011;22898;52.102;5.776;2023-10-31T02:50:49;9.07;;;4.30;;
36989;SDS011;22898;52.102;5.776;2023-10-31T02:53:15;7.95;;;4.47;;
36989;SDS011;22898;52.102;5.776;2023-10-31T02:55:43;6.88;;;3.70;;
36989;SDS011;22898;52.102;5.776;2023-10-31T02:58:08;11.20;;;4.00;;
36989;SDS011;22898;52.102;5.776;2023-10-31T03:00:34;7.97;;;4.05;;
36989;SDS011;22898;52.102;5.776;2023-10-31T03:02:59;9.70;;;4.50;;
36989;SDS011;22898;52.102;5.776;2023-10-31T03:05:25;9.77;;;4.10;;
36989;SDS011;22898;52.102;5.776;2023-10-31T03:07:50;7.18;;;4.13;;
36989;SDS011;22898;52.102;5.776;2023-10-31T03:10:17;11.07;;;4.22;;
36989;SDS011;22898;52.102;5.776;2023-10-31T03:12:44;7.07;;;3.95;;
36989;SDS011;22898;52.102;5.776;2023-10-31T03:15:10;4.88;;;3.30;;
36989;SDS011;22898;52.102;5.776;2023-10-31T03:17:35;6.97;;;3.40;;
36989;SDS011;22898;52.102;5.776;2023-10-31T03:20:01;6.85;;;3.47;;
36989;SDS011;22898;52.102;5.776;2023-10-31T03:22:27;5.80;;;3.20;;
36989;SDS011;22898;52.102;5.776;2023-10-31T03:24:53;6.53;;;3.50;;
36989;SDS011;22898;52.102;5.776;2023-10-31T03:27:19;6.03;;;3.75;;
36989;SDS011;22898;52.102;5.776;2023-10-31T03:29:44;7.50;;;3.22;;
36989;SDS011;22898;52.102;5.776;2023-10-31T03:32:11;7.20;;;4.22;;
36989;SDS011;22898;52.102;5.776;2023-10-31T03:34:37;9.45;;;3.45;;
36989;SDS011;22898;52.102;5.776;2023-10-31T03:37:03;5.30;;;3.17;;
36989;SDS011;22898;52.102;5.776;2023-10-31T03:39:29;5.65;;;2.97;;
36989;SDS011;22898;52.102;5.776;2023-10-31T03:41:55;4.35;;;2.80;;
36989;SDS011;22898;52.102;5.776;2023-10-31T03:44:20;5.47;;;2.90;;
36989;SDS011;22898;52.102;5.776;2023-10-31T03:46:46;5.30;;;3.05;;
36989;SDS011;22898;52.102;5.776;2023-10-31T03:49:11;4.32;;;2.83;;
36989;SDS011;22898;52.102;5.776;2023-10-31T03:51:37;3.28;;;2.08;;
36989;SDS011;22898;52.102;5.776;2023-10-31T03:54:02;5.43;;;2.72;;
36989;SDS011;22898;52.102;5.776;2023-10-31T03:56:28;4.93;;;2.70;;
36989;SDS011;22898;52.102;5.776;2023-10-31T03:58:54;5.25;;;2.65;;
36989;SDS011;22898;52.102;5.776;2023-10-31T04:01:19;5.07;;;2.72;;
36989;SDS011;22898;52.102;5.776;2023-10-31T04:03:45;5.05;;;2.42;;
36989;SDS011;22898;52.102;5.776;2023-10-31T04:06:11;5.78;;;3.25;;
36989;SDS011;22898;52.102;5.776;2023-10-31T04:08:37;4.53;;;2.70;;
36989;SDS011;22898;52.102;5.776;2023-10-31T04:11:02;7.38;;;2.83;;
36989;SDS011;22898;52.102;5.776;2023-10-31T04:13:28;4.10;;;2.45;;
36989;SDS011;22898;52.102;5.776;2023-10-31T04:15:54;3.83;;;2.15;;
36989;SDS011;22898;52.102;5.776;2023-10-31T04:18:19;4.05;;;2.22;;
36989;SDS011;22898;52.102;5.776;2023-10-31T04:20:45;3.78;;;2.35;;
36989;SDS011;22898;52.102;5.776;2023-10-31T04:23:11;2.97;;;1.75;;
36989;SDS011;22898;52.102;5.776;2023-10-31T04:25:37;5.18;;;2.50;;
36989;SDS011;22898;52.102;5.776;2023-10-31T04:28:02;3.70;;;2.20;;
36989;SDS011;22898;52.102;5.776;2023-10-31T04:30:28;5.00;;;2.65;;
36989;SDS011;22898;52.102;5.776;2023-10-31T04:32:54;4.13;;;1.90;;
36989;SDS011;22898;52.102;5.776;2023-10-31T04:35:19;2.35;;;1.38;;
36989;SDS011;22898;52.102;5.776;2023-10-31T04:37:45;4.82;;;1.55;;
36989;SDS011;22898;52.102;5.776;2023-10-31T04:40:11;3.03;;;1.63;;
36989;SDS011;22898;52.102;5.776;2023-10-31T04:42:38;1.52;;;1.02;;
36989;SDS011;22898;52.102;5.776;2023-10-31T04:45:08;5.15;;;1.50;;
36989;SDS011;22898;52.102;5.776;2023-10-31T04:47:34;3.63;;;1.10;;
36989;SDS011;22898;52.102;5.776;2023-10-31T04:50:00;1.20;;;1.05;;
36989;SDS011;22898;52.102;5.776;2023-10-31T04:52:25;4.85;;;2.05;;
36989;SDS011;22898;52.102;5.776;2023-10-31T04:54:51;1.17;;;0.90;;
36989;SDS011;22898;52.102;5.776;2023-10-31T04:57:17;1.00;;;0.90;;
36989;SDS011;22898;52.102;5.776;2023-10-31T04:59:42;7.18;;;1.20;;
36989;SDS011;22898;52.102;5.776;2023-10-31T05:02:08;3.50;;;1.40;;
36989;SDS011;22898;52.102;5.776;2023-10-31T05:04:33;5.88;;;1.70;;
36989;SDS011;22898;52.102;5.776;2023-10-31T05:07:02;2.25;;;1.30;;
36989;SDS011;22898;52.102;5.776;2023-10-31T05:09:28;2.38;;;1.40;;
36989;SDS011;22898;52.102;5.776;2023-10-31T05:11:55;4.75;;;1.15;;
36989;SDS011;22898;52.102;5.776;2023-10-31T05:14:20;1.25;;;0.98;;
36989;SDS011;22898;52.102;5.776;2023-10-31T05:16:46;2.97;;;1.02;;
36989;SDS011;22898;52.102;5.776;2023-10-31T05:19:12;3.30;;;1.30;;
36989;SDS011;22898;52.102;5.776;2023-10-31T05:21:37;1.88;;;1.20;;
36989;SDS011;22898;52.102;5.776;2023-10-31T05:24:03;1.60;;;1.15;;
36989;SDS011;22898;52.102;5.776;2023-10-31T05:26:29;1.52;;;1.08;;
36989;SDS011;22898;52.102;5.776;2023-10-31T05:28:56;2.25;;;1.10;;
36989;SDS011;22898;52.102;5.776;2023-10-31T05:31:22;1.15;;;0.90;;
36989;SDS011;22898;52.102;5.776;2023-10-31T05:33:49;3.45;;;1.75;;
36989;SDS011;22898;52.102;5.776;2023-10-31T05:36:19;1.65;;;1.02;;
36989;SDS011;22898;52.102;5.776;2023-10-31T05:38:46;1.90;;;1.40;;
36989;SDS011;22898;52.102;5.776;2023-10-31T05:41:12;2.88;;;1.15;;
36989;SDS011;22898;52.102;5.776;2023-10-31T05:43:38;4.70;;;2.00;;
36989;SDS011;22898;52.102;5.776;2023-10-31T05:46:03;6.30;;;1.80;;
36989;SDS011;22898;52.102;5.776;2023-10-31T05:48:30;3.00;;;1.70;;
36989;SDS011;22898;52.102;5.776;2023-10-31T05:50:56;5.20;;;1.90;;
36989;SDS011;22898;52.102;5.776;2023-10-31T05:53:21;1.63;;;1.23;;
36989;SDS011;22898;52.102;5.776;2023-10-31T05:55:47;4.47;;;1.77;;
36989;SDS011;22898;52.102;5.776;2023-10-31T05:58:12;5.75;;;2.17;;
36989;SDS011;22898;52.102;5.776;2023-10-31T06:00:38;2.95;;;1.50;;
36989;SDS011;22898;52.102;5.776;2023-10-31T06:03:04;2.97;;;1.80;;
36989;SDS011;22898;52.102;5.776;2023-10-31T06:05:29;3.38;;;1.85;;
36989;SDS011;22898;52.102;5.776;2023-10-31T06:07:55;3.67;;;2.13;;
36989;SDS011;22898;52.102;5.776;2023-10-31T06:10:21;4.70;;;2.38;;
36989;SDS011;22898;52.102;5.776;2023-10-31T06:12:46;5.25;;;2.40;;
36989;SDS011;22898;52.102;5.776;2023-10-31T06:15:12;4.90;;;2.55;;
36989;SDS011;22898;52.102;5.776;2023-10-31T06:17:38;4.13;;;2.15;;
36989;SDS011;22898;52.102;5.776;2023-10-31T06:20:04;5.53;;;2.00;;
36989;SDS011;22898;52.102;5.776;2023-10-31T06:22:32;4.53;;;1.98;;
36989;SDS011;22898;52.102;5.776;2023-10-31T06:24:58;4.57;;;1.98;;
36989;SDS011;22898;52.102;5.776;2023-10-31T06:27:24;4.72;;;2.10;;
36989;SDS011;22898;52.102;5.776;2023-10-31T06:29:49;3.22;;;1.60;;
36989;SDS011;22898;52.102;5.776;2023-10-31T06:32:15;3.70;;;2.17;;
36989;SDS011;22898;52.102;5.776;2023-10-31T06:34:40;3.70;;;2.00;;
36989;SDS011;22898;52.102;5.776;2023-10-31T06:37:06;2.88;;;1.50;;
36989;SDS011;22898;52.102;5.776;2023-10-31T06:39:32;3.67;;;1.60;;
36989;SDS011;22898;52.102;5.776;2023-10-31T06:41:57;2.70;;;1.67;;
36989;SDS011;22898;52.102;5.776;2023-10-31T06:44:23;5.28;;;1.83;;
36989;SDS011;22898;52.102;5.776;2023-10-31T06:46:49;4.57;;;1.83;;
36989;SDS011;22898;52.102;5.776;2023-10-31T06:49:14;4.50;;;1.63;;
36989;SDS011;22898;52.102;5.776;2023-10-31T06:51:40;3.75;;;1.95;;
36989;SDS011;22898;52.102;5.776;2023-10-31T06:54:06;2.85;;;1.48;;
36989;SDS011;22898;52.102;5.776;2023-10-31T06:56:32;2.53;;;1.38;;
36989;SDS011;22898;52.102;5.776;2023-10-31T06:58:57;2.70;;;1.63;;
36989;SDS011;22898;52.102;5.776;2023-10-31T07:01:23;2.20;;;1.38;;
36989;SDS011;22898;52.102;5.776;2023-10-31T07:03:49;1.52;;;1.20;;
36989;SDS011;22898;52.102;5.776;2023-10-31T07:06:15;2.33;;;1.38;;
36989;SDS011;22898;52.102;5.776;2023-10-31T07:08:41;1.73;;;1.20;;
36989;SDS011;22898;52.102;5.776;2023-10-31T07:11:06;3.90;;;1.92;;
36989;SDS011;22898;52.102;5.776;2023-10-31T07:13:32;3.15;;;1.45;;
36989;SDS011;22898;52.102;5.776;2023-10-31T07:15:57;3.75;;;1.67;;
36989;SDS011;22898;52.102;5.776;2023-10-31T07:18:23;1.92;;;1.42;;
36989;SDS011;22898;52.102;5.776;2023-10-31T07:20:48;4.28;;;1.95;;
36989;SDS011;22898;52.102;5.776;2023-10-31T07:23:14;2.25;;;1.10;;
36989;SDS011;22898;52.102;5.776;2023-10-31T07:25:40;2.85;;;1.70;;
36989;SDS011;22898;52.102;5.776;2023-10-31T07:28:06;2.15;;;1.40;;
36989;SDS011;22898;52.102;5.776;2023-10-31T07:30:32;3.55;;;1.88;;
36989;SDS011;22898;52.102;5.776;2023-10-31T07:32:57;2.08;;;1.63;;
36989;SDS011;22898;52.102;5.776;2023-10-31T07:35:23;6.18;;;2.03;;
36989;SDS011;22898;52.102;5.776;2023-10-31T07:37:49;3.22;;;2.15;;
36989;SDS011;22898;52.102;5.776;2023-10-31T07:40:14;3.85;;;2.30;;
36989;SDS011;22898;52.102;5.776;2023-10-31T07:42:40;7.18;;;2.25;;
36989;SDS011;22898;52.102;5.776;2023-10-31T07:45:06;5.10;;;2.47;;
36989;SDS011;22898;52.102;5.776;2023-10-31T07:47:32;5.65;;;2.63;;
36989;SDS011;22898;52.102;5.776;2023-10-31T07:49:57;5.38;;;2.67;;
36989;SDS011;22898;52.102;5.776;2023-10-31T07:52:24;5.07;;;2.85;;
36989;SDS011;22898;52.102;5.776;2023-10-31T07:54:49;5.68;;;2.40;;
36989;SDS011;22898;52.102;5.776;2023-10-31T07:57:15;3.70;;;2.20;;
36989;SDS011;22898;52.102;5.776;2023-10-31T07:59:40;3.50;;;2.30;;
36989;SDS011;22898;52.102;5.776;2023-10-31T08:02:06;6.10;;;2.30;;
36989;SDS011;22898;52.102;5.776;2023-10-31T08:04:31;4.82;;;2.35;;
36989;SDS011;22898;52.102;5.776;2023-10-31T08:06:57;4.10;;;2.17;;
36989;SDS011;22898;52.102;5.776;2023-10-31T08:09:22;3.63;;;2.20;;
36989;SDS011;22898;52.102;5.776;2023-10-31T08:11:48;4.50;;;2.33;;
36989;SDS011;22898;52.102;5.776;2023-10-31T08:14:14;3.97;;;2.38;;
36989;SDS011;22898;52.102;5.776;2023-10-31T08:16:40;4.38;;;2.25;;
36989;SDS011;22898;52.102;5.776;2023-10-31T08:19:06;4.40;;;2.50;;
36989;SDS011;22898;52.102;5.776;2023-10-31T08:21:32;6.38;;;2.45;;
36989;SDS011;22898;52.102;5.776;2023-10-31T08:24:03;3.88;;;2.17;;
36989;SDS011;22898;52.102;5.776;2023-10-31T08:26:32;7.07;;;2.40;;
36989;SDS011;22898;52.102;5.776;2023-10-31T08:28:59;4.53;;;2.20;;
36989;SDS011;22898;52.102;5.776;2023-10-31T08:31:25;5.05;;;2.33;;
36989;SDS011;22898;52.102;5.776;2023-10-31T08:33:50;6.40;;;1.92;;
36989;SDS011;22898;52.102;5.776;2023-10-31T08:36:16;3.65;;;2.30;;
36989;SDS011;22898;52.102;5.776;2023-10-31T08:38:42;4.53;;;2.55;;
36989;SDS011;22898;52.102;5.776;2023-10-31T08:41:07;5.85;;;1.77;;
36989;SDS011;22898;52.102;5.776;2023-10-31T08:43:33;3.45;;;2.08;;
36989;SDS011;22898;52.102;5.776;2023-10-31T08:45:59;4.22;;;2.10;;
36989;SDS011;22898;52.102;5.776;2023-10-31T08:48:24;4.88;;;2.35;;
36989;SDS011;22898;52.102;5.776;2023-10-31T08:50:50;3.38;;;2.42;;
36989;SDS011;22898;52.102;5.776;2023-10-31T08:53:16;3.83;;;2.10;;
36989;SDS011;22898;52.102;5.776;2023-10-31T08:55:44;2.80;;;1.88;;
36989;SDS011;22898;52.102;5.776;2023-10-31T08:58:12;4.60;;;2.40;;
36989;SDS011;22898;52.102;5.776;2023-10-31T09:00:39;3.13;;;2.40;;
36989;SDS011;22898;52.102;5.776;2023-10-31T09:03:08;2.78;;;1.67;;
36989;SDS011;22898;52.102;5.776;2023-10-31T09:05:33;2.80;;;1.88;;
36989;SDS011;22898;52.102;5.776;2023-10-31T09:07:59;3.38;;;2.05;;
36989;SDS011;22898;52.102;5.776;2023-10-31T09:10:25;3.40;;;2.05;;
36989;SDS011;22898;52.102;5.776;2023-10-31T09:12:50;5.07;;;2.17;;
36989;SDS011;22898;52.102;5.776;2023-10-31T09:15:16;3.40;;;2.15;;
36989;SDS011;22898;52.102;5.776;2023-10-31T09:17:41;3.92;;;2.25;;
36989;SDS011;22898;52.102;5.776;2023-10-31T09:20:08;7.10;;;2.85;;
36989;SDS011;22898;52.102;5.776;2023-10-31T09:22:34;3.00;;;2.20;;
36989;SDS011;22898;52.102;5.776;2023-10-31T09:24:59;5.10;;;2.05;;
36989;SDS011;22898;52.102;5.776;2023-10-31T09:27:25;14.20;;;3.03;;
36989;SDS011;22898;52.102;5.776;2023-10-31T09:29:50;4.40;;;1.85;;
36989;SDS011;22898;52.102;5.776;2023-10-31T09:32:17;4.72;;;1.90;;
36989;SDS011;22898;52.102;5.776;2023-10-31T09:34:43;4.75;;;2.90;;
36989;SDS011;22898;52.102;5.776;2023-10-31T09:37:09;4.75;;;2.45;;
36989;SDS011;22898;52.102;5.776;2023-10-31T09:39:34;8.07;;;2.50;;
36989;SDS011;22898;52.102;5.776;2023-10-31T09:42:00;3.33;;;1.95;;
36989;SDS011;22898;52.102;5.776;2023-10-31T09:44:26;3.67;;;2.13;;
36989;SDS011;22898;52.102;5.776;2023-10-31T09:46:51;6.40;;;2.58;;
36989;SDS011;22898;52.102;5.776;2023-10-31T09:49:18;6.22;;;2.72;;
36989;SDS011;22898;52.102;5.776;2023-10-31T09:51:44;3.22;;;2.03;;
36989;SDS011;22898;52.102;5.776;2023-10-31T09:54:11;3.83;;;2.38;;
36989;SDS011;22898;52.102;5.776;2023-10-31T09:56:40;5.70;;;2.60;;
36989;SDS011;22898;52.102;5.776;2023-10-31T09:59:07;6.68;;;1.95;;
36989;SDS011;22898;52.102;5.776;2023-10-31T10:01:32;4.57;;;1.90;;
36989;SDS011;22898;52.102;5.776;2023-10-31T10:03:58;4.45;;;2.13;;
36989;SDS011;22898;52.102;5.776;2023-10-31T10:06:24;3.88;;;2.40;;
36989;SDS011;22898;52.102;5.776;2023-10-31T10:08:50;10.40;;;2.72;;
36989;SDS011;22898;52.102;5.776;2023-10-31T10:11:15;9.10;;;2.53;;
36989;SDS011;22898;52.102;5.776;2023-10-31T10:13:42;8.30;;;2.40;;
36989;SDS011;22898;52.102;5.776;2023-10-31T10:16:08;7.53;;;3.13;;
36989;SDS011;22898;52.102;5.776;2023-10-31T10:18:35;6.95;;;3.08;;
36989;SDS011;22898;52.102;5.776;2023-10-31T10:21:04;10.75;;;2.33;;
36989;SDS011;22898;52.102;5.776;2023-10-31T10:23:31;4.28;;;2.42;;
36989;SDS011;22898;52.102;5.776;2023-10-31T10:25:58;6.40;;;2.97;;
36989;SDS011;22898;52.102;5.776;2023-10-31T10:28:25;3.58;;;2.08;;
36989;SDS011;22898;52.102;5.776;2023-10-31T10:30:52;7.25;;;2.28;;
36989;SDS011;22898;52.102;5.776;2023-10-31T10:33:19;5.80;;;2.00;;
36989;SDS011;22898;52.102;5.776;2023-10-31T10:35:45;4.05;;;2.05;;
36989;SDS011;22898;52.102;5.776;2023-10-31T10:38:13;7.57;;;2.17;;
36989;SDS011;22898;52.102;5.776;2023-10-31T10:40:43;3.92;;;2.25;;
36989;SDS011;22898;52.102;5.776;2023-10-31T10:43:12;5.55;;;1.73;;
36989;SDS011;22898;52.102;5.776;2023-10-31T10:45:42;5.50;;;2.15;;
36989;SDS011;22898;52.102;5.776;2023-10-31T10:48:11;4.43;;;2.10;;
36989;SDS011;22898;52.102;5.776;2023-10-31T10:50:41;10.40;;;2.72;;
36989;SDS011;22898;52.102;5.776;2023-10-31T10:53:10;4.05;;;2.13;;
36989;SDS011;22898;52.102;5.776;2023-10-31T10:55:39;2.47;;;2.00;;
36989;SDS011;22898;52.102;5.776;2023-10-31T10:58:11;4.07;;;2.20;;
36989;SDS011;22898;52.102;5.776;2023-10-31T11:00:44;4.85;;;1.83;;
36989;SDS011;22898;52.102;5.776;2023-10-31T11:03:10;5.82;;;2.15;;
36989;SDS011;22898;52.102;5.776;2023-10-31T11:05:37;6.80;;;2.15;;
36989;SDS011;22898;52.102;5.776;2023-10-31T11:08:03;4.05;;;2.15;;
36989;SDS011;22898;52.102;5.776;2023-10-31T11:10:30;3.70;;;1.73;;
36989;SDS011;22898;52.102;5.776;2023-10-31T11:12:57;4.20;;;1.98;;
36989;SDS011;22898;52.102;5.776;2023-10-31T11:15:23;3.45;;;2.00;;
36989;SDS011;22898;52.102;5.776;2023-10-31T11:17:50;3.10;;;1.80;;
36989;SDS011;22898;52.102;5.776;2023-10-31T11:20:17;4.30;;;1.90;;
36989;SDS011;22898;52.102;5.776;2023-10-31T11:22:44;4.72;;;2.00;;
36989;SDS011;22898;52.102;5.776;2023-10-31T11:25:20;4.28;;;2.10;;
36989;SDS011;22898;52.102;5.776;2023-10-31T11:27:49;2.80;;;2.17;;
36989;SDS011;22898;52.102;5.776;2023-10-31T11:32:53;3.17;;;1.67;;
36989;SDS011;22898;52.102;5.776;2023-10-31T11:35:21;2.70;;;1.88;;
36989;SDS011;22898;52.102;5.776;2023-10-31T11:37:48;4.47;;;2.10;;
36989;SDS011;22898;52.102;5.776;2023-10-31T11:40:17;2.55;;;1.77;;
36989;SDS011;22898;52.102;5.776;2023-10-31T11:42:50;4.38;;;1.90;;
36989;SDS011;22898;52.102;5.776;2023-10-31T11:45:24;4.20;;;1.67;;
36989;SDS011;22898;52.102;5.776;2023-10-31T11:47:50;3.00;;;1.83;;
36989;SDS011;22898;52.102;5.776;2023-10-31T11:50:16;2.50;;;1.73;;
36989;SDS011;22898;52.102;5.776;2023-10-31T11:52:43;3.67;;;1.70;;
36989;SDS011;22898;52.102;5.776;2023-10-31T11:55:09;4.20;;;2.05;;
36989;SDS011;22898;52.102;5.776;2023-10-31T11:57:35;4.82;;;2.17;;
36989;SDS011;22898;52.102;5.776;2023-10-31T12:00:01;5.50;;;2.08;;
36989;SDS011;22898;52.102;5.776;2023-10-31T12:02:29;5.80;;;2.78;;
36989;SDS011;22898;52.102;5.776;2023-10-31T12:05:10;4.25;;;2.10;;
36989;SDS011;22898;52.102;5.776;2023-10-31T12:07:43;3.47;;;1.70;;
36989;SDS011;22898;52.102;5.776;2023-10-31T12:10:10;4.43;;;2.20;;
36989;SDS011;22898;52.102;5.776;2023-10-31T12:12:36;6.97;;;3.05;;
36989;SDS011;22898;52.102;5.776;2023-10-31T12:15:08;6.80;;;3.20;;
36989;SDS011;22898;52.102;5.776;2023-10-31T12:17:34;4.50;;;3.40;;
36989;SDS011;22898;52.102;5.776;2023-10-31T12:20:07;5.50;;;3.40;;
36989;SDS011;22898;52.102;5.776;2023-10-31T12:22:36;4.10;;;2.97;;
36989;SDS011;22898;52.102;5.776;2023-10-31T12:27:44;9.35;;;4.50;;
36989;SDS011;22898;52.102;5.776;2023-10-31T12:30:10;7.18;;;4.70;;
36989;SDS011;22898;52.102;5.776;2023-10-31T12:32:37;7.47;;;5.18;;
36989;SDS011;22898;52.102;5.776;2023-10-31T12:35:04;11.00;;;5.68;;
36989;SDS011;22898;52.102;5.776;2023-10-31T12:37:30;9.85;;;5.25;;
36989;SDS011;22898;52.102;5.776;2023-10-31T12:39:56;7.97;;;4.55;;
36989;SDS011;22898;52.102;5.776;2023-10-31T12:42:23;12.00;;;6.88;;
36989;SDS011;22898;52.102;5.776;2023-10-31T12:44:54;12.35;;;6.85;;
36989;SDS011;22898;52.102;5.776;2023-10-31T12:47:21;9.45;;;5.22;;
36989;SDS011;22898;52.102;5.776;2023-10-31T12:49:47;11.88;;;5.80;;
36989;SDS011;22898;52.102;5.776;2023-10-31T12:52:12;10.90;;;5.30;;
36989;SDS011;22898;52.102;5.776;2023-10-31T12:54:38;10.75;;;5.25;;
36989;SDS011;22898;52.102;5.776;2023-10-31T12:57:05;13.68;;;5.53;;
36989;SDS011;22898;52.102;5.776;2023-10-31T12:59:32;14.95;;;6.47;;
36989;SDS011;22898;52.102;5.776;2023-10-31T13:01:59;10.63;;;5.80;;
36989;SDS011;22898;52.102;5.776;2023-10-31T13:04:25;13.15;;;6.07;;
36989;SDS011;22898;52.102;5.776;2023-10-31T13:06:58;11.43;;;6.47;;
36989;SDS011;22898;52.102;5.776;2023-10-31T13:09:29;11.38;;;5.78;;
36989;SDS011;22898;52.102;5.776;2023-10-31T13:11:57;12.85;;;5.82;;
36989;SDS011;22898;52.102;5.776;2023-10-31T13:14:25;12.75;;;6.03;;
36989;SDS011;22898;52.102;5.776;2023-10-31T13:16:50;12.05;;;6.75;;
36989;SDS011;22898;52.102;5.776;2023-10-31T13:19:16;12.65;;;6.22;;
36989;SDS011;22898;52.102;5.776;2023-10-31T13:21:42;16.15;;;5.72;;
36989;SDS011;22898;52.102;5.776;2023-10-31T13:24:07;14.10;;;6.82;;
36989;SDS011;22898;52.102;5.776;2023-10-31T13:26:33;13.15;;;6.25;;
36989;SDS011;22898;52.102;5.776;2023-10-31T13:28:59;14.60;;;6.55;;
36989;SDS011;22898;52.102;5.776;2023-10-31T13:31:25;18.40;;;6.72;;
36989;SDS011;22898;52.102;5.776;2023-10-31T13:33:51;11.35;;;5.65;;
36989;SDS011;22898;52.102;5.776;2023-10-31T13:36:16;12.27;;;5.22;;
36989;SDS011;22898;52.102;5.776;2023-10-31T13:38:43;7.32;;;4.07;;
36989;SDS011;22898;52.102;5.776;2023-10-31T13:41:08;16.92;;;5.03;;
36989;SDS011;22898;52.102;5.776;2023-10-31T13:43:35;11.95;;;5.43;;
36989;SDS011;22898;52.102;5.776;2023-10-31T13:46:02;9.57;;;5.07;;
36989;SDS011;22898;52.102;5.776;2023-10-31T13:48:27;14.43;;;4.82;;
36989;SDS011;22898;52.102;5.776;2023-10-31T13:50:53;9.50;;;5.28;;
36989;SDS011;22898;52.102;5.776;2023-10-31T13:53:19;8.68;;;4.15;;
36989;SDS011;22898;52.102;5.776;2023-10-31T13:55:44;17.73;;;5.55;;
36989;SDS011;22898;52.102;5.776;2023-10-31T13:58:11;14.23;;;5.18;;
36989;SDS011;22898;52.102;5.776;2023-10-31T14:00:36;10.23;;;4.38;;
36989;SDS011;22898;52.102;5.776;2023-10-31T14:03:02;9.93;;;4.95;;
36989;SDS011;22898;52.102;5.776;2023-10-31T14:05:27;10.75;;;5.20;;
36989;SDS011;22898;52.102;5.776;2023-10-31T14:07:53;8.85;;;4.40;;
36989;SDS011;22898;52.102;5.776;2023-10-31T14:10:19;12.35;;;5.70;;
36989;SDS011;22898;52.102;5.776;2023-10-31T14:12:46;8.80;;;4.93;;
36989;SDS011;22898;52.102;5.776;2023-10-31T14:15:11;9.43;;;5.20;;
36989;SDS011;22898;52.102;5.776;2023-10-31T14:17:37;9.13;;;5.65;;
36989;SDS011;22898;52.102;5.776;2023-10-31T14:20:03;9.93;;;5.28;;
36989;SDS011;22898;52.102;5.776;2023-10-31T14:22:29;10.88;;;5.97;;
36989;SDS011;22898;52.102;5.776;2023-10-31T14:24:55;10.77;;;5.20;;
36989;SDS011;22898;52.102;5.776;2023-10-31T14:27:20;12.43;;;5.45;;
36989;SDS011;22898;52.102;5.776;2023-10-31T14:29:46;10.40;;;6.03;;
36989;SDS011;22898;52.102;5.776;2023-10-31T14:32:12;13.45;;;7.05;;
36989;SDS011;22898;52.102;5.776;2023-10-31T14:34:37;14.45;;;6.53;;
36989;SDS011;22898;52.102;5.776;2023-10-31T14:37:03;9.23;;;5.53;;
36989;SDS011;22898;52.102;5.776;2023-10-31T14:39:30;12.02;;;5.47;;
36989;SDS011;22898;52.102;5.776;2023-10-31T14:41:56;14.60;;;5.35;;
36989;SDS011;22898;52.102;5.776;2023-10-31T14:44:22;13.20;;;5.75;;